Terminal Aerodrome Forecast
Issued by NWS

Home | Current Version | Previous Version | Text Only | Print | Product List | Glossary On
Versions: 1 2 3 4 5 6 7 8 9 10 11 12
000
FTUS42 TJSJ 221721
TAFISX
TAF
TISX 221721Z 2218/2318 11015G21KT P6SM VCSH SCT030
     FM222130 08008KT P6SM FEW030
     FM230400 05004KT P6SM FEW028
     FM231430 11013KT P6SM SCT024=

USA.gov is the U.S. government's official web portal to all federal, state and local government web resources and services.